METAR Formatted Surface Weather Observation
Issued by NWS

Home | Current Version | Previous Version | Text Only | Print | Product List | Glossary On
Versions: 1 2
000
SAUS43 KDTX 270154
MTRP58
METAR KP58 270151Z AUTO 16004KT 21/19 A3013 RMK AO1 SLP195 T02110189



USA.gov is the U.S. government's official web portal to all federal, state and local government web resources and services.